createdAt,value
2023-03-27T00:01:19.223Z,66.47
2023-03-27T00:03:49.799Z,66.64
2023-03-27T00:06:20.234Z,66.87
2023-03-27T00:08:52.033Z,66.17
2023-03-27T00:11:21.235Z,66.59
2023-03-27T00:13:51.369Z,66.61
2023-03-27T00:16:20.393Z,66.52
2023-03-27T00:18:48.950Z,66.58
2023-03-27T00:21:17.375Z,66.98
2023-03-27T00:23:45.709Z,66.98
2023-03-27T00:26:15.551Z,66.88
2023-03-27T00:28:43.979Z,66.76
2023-03-27T00:31:13.836Z,66.74
2023-03-27T00:33:43.010Z,66.87
2023-03-27T00:36:12.809Z,66.38
2023-03-27T00:38:41.673Z,66.75
2023-03-27T00:41:10.371Z,66.68
2023-03-27T00:43:44.211Z,66.75
2023-03-27T00:46:38.980Z,66.30
2023-03-27T00:49:11.946Z,66.72
2023-03-27T00:51:44.018Z,66.63
2023-03-27T00:54:16.386Z,66.38
2023-03-27T00:56:45.994Z,65.58
2023-03-27T00:59:21.464Z,65.71
2023-03-27T01:01:50.385Z,66.30
2023-03-27T01:04:21.708Z,66.32
2023-03-27T01:06:52.910Z,66.03
2023-03-27T01:09:21.853Z,66.12
2023-03-27T01:12:05.653Z,66.44
2023-03-27T01:14:42.137Z,66.37
2023-03-27T01:17:27.497Z,66.41
2023-03-27T01:20:47.374Z,66.49
2023-03-27T01:24:00.032Z,67.41
2023-03-27T01:26:58.407Z,67.18
2023-03-27T01:29:47.508Z,67.09
2023-03-27T01:32:54.453Z,67.13
2023-03-27T01:35:38.322Z,67.22
2023-03-27T01:38:16.928Z,66.95
2023-03-27T01:40:52.257Z,66.23
2023-03-27T01:43:27.589Z,66.89
2023-03-27T01:45:58.896Z,67.86
2023-03-27T01:48:34.334Z,67.57
2023-03-27T01:51:05.240Z,67.64
2023-03-27T01:53:38.429Z,67.55
2023-03-27T01:56:18.260Z,67.18
2023-03-27T01:58:50.000Z,67.79
2023-03-27T02:01:22.821Z,67.49
2023-03-27T02:03:56.077Z,67.51
2023-03-27T02:06:29.059Z,67.49
2023-03-27T02:09:03.096Z,67.56
2023-03-27T02:11:36.511Z,67.79
2023-03-27T02:14:09.052Z,67.47
2023-03-27T02:16:43.085Z,67.90
2023-03-27T02:19:15.404Z,68.32
2023-03-27T02:21:43.732Z,68.14
2023-03-27T02:24:13.181Z,67.88
2023-03-27T02:26:43.188Z,67.95
2023-03-27T02:29:37.900Z,67.78
2023-03-27T02:32:18.386Z,67.76
2023-03-27T02:35:10.344Z,67.55
2023-03-27T02:37:50.824Z,67.54
2023-03-27T02:40:27.874Z,68.11
2023-03-27T02:43:07.654Z,67.46
2023-03-27T02:45:44.999Z,67.19
2023-03-27T02:48:19.684Z,67.64
2023-03-27T02:50:53.273Z,67.91
2023-03-27T02:53:25.202Z,67.82
2023-03-27T02:55:56.050Z,67.69
2023-03-27T02:58:32.448Z,68.08
2023-03-27T03:01:02.382Z,68.06
2023-03-27T03:03:37.895Z,67.79
2023-03-27T03:06:07.566Z,67.76
2023-03-27T03:08:39.276Z,67.74
2023-03-27T03:11:11.354Z,67.72
2023-03-27T03:13:41.669Z,67.66
2023-03-27T03:16:11.301Z,67.11
2023-03-27T03:18:39.652Z,67.42
2023-03-27T03:21:08.685Z,67.47
2023-03-27T03:23:37.053Z,67.78
2023-03-27T03:26:06.789Z,67.34
2023-03-27T03:28:36.206Z,67.25
2023-03-27T03:31:06.711Z,67.55
2023-03-27T03:33:35.891Z,67.56
2023-03-27T03:36:04.655Z,67.81
2023-03-27T03:38:38.143Z,67.91
2023-03-27T03:41:06.861Z,67.59
2023-03-27T03:43:35.385Z,67.68
2023-03-27T03:46:04.153Z,67.81
2023-03-27T03:48:33.986Z,67.74
2023-03-27T03:51:02.304Z,67.71
2023-03-27T03:53:30.640Z,67.32
2023-03-27T03:55:59.288Z,66.63
2023-03-27T03:58:34.924Z,66.34
2023-03-27T04:01:04.481Z,66.54
2023-03-27T04:03:34.752Z,66.68
2023-03-27T04:06:05.666Z,66.24
2023-03-27T04:08:34.494Z,66.17
2023-03-27T04:11:02.811Z,66.20
2023-03-27T04:13:31.541Z,66.75
2023-03-27T04:16:02.127Z,66.74
2023-03-27T04:18:33.011Z,66.33
2023-03-27T04:21:03.623Z,66.57
2023-03-27T04:23:33.880Z,66.52
2023-03-27T04:26:04.199Z,66.79
2023-03-27T04:28:34.721Z,66.90
2023-03-27T04:31:06.635Z,66.44
2023-03-27T04:33:35.530Z,66.49
2023-03-27T04:36:07.838Z,66.05
2023-03-27T04:38:37.133Z,66.55
2023-03-27T04:41:05.841Z,65.87
2023-03-27T04:43:36.858Z,66.04
2023-03-27T04:46:06.137Z,65.88
2023-03-27T04:48:34.861Z,66.00
2023-03-27T04:51:05.264Z,65.96
2023-03-27T04:53:36.295Z,65.33
2023-03-27T04:56:05.103Z,65.96
2023-03-27T04:58:36.688Z,65.45
2023-03-27T05:01:06.130Z,65.51
2023-03-27T05:03:35.051Z,65.62
2023-03-27T05:06:05.921Z,65.44
2023-03-27T05:08:34.194Z,65.95
2023-03-27T05:11:03.065Z,65.87
2023-03-27T05:13:31.473Z,65.67
2023-03-27T05:16:01.973Z,65.41
2023-03-27T05:18:31.265Z,65.48
2023-03-27T05:20:59.706Z,64.54
2023-03-27T05:23:30.214Z,64.46
2023-03-27T05:26:00.314Z,64.37
2023-03-27T05:28:29.898Z,64.78
2023-03-27T05:30:58.733Z,64.55
2023-03-27T05:33:27.346Z,64.23
2023-03-27T05:35:57.615Z,63.87
2023-03-27T05:38:28.443Z,63.83
2023-03-27T05:40:56.955Z,63.68
2023-03-27T05:43:25.639Z,63.76
2023-03-27T05:45:54.030Z,63.97
2023-03-27T05:48:22.460Z,64.26
2023-03-27T05:50:50.850Z,64.27
2023-03-27T05:53:19.721Z,64.10
2023-03-27T05:55:50.011Z,64.06
2023-03-27T05:58:31.796Z,63.60
2023-03-27T06:01:00.752Z,63.86
2023-03-27T06:03:30.950Z,63.34
2023-03-27T06:06:00.403Z,63.36
2023-03-27T06:08:28.976Z,63.20
2023-03-27T06:10:58.908Z,63.05
2023-03-27T06:13:29.088Z,62.84
2023-03-27T06:15:57.725Z,62.30
2023-03-27T06:18:26.356Z,62.40
2023-03-27T06:20:54.770Z,62.17
2023-03-27T06:23:23.451Z,61.69
2023-03-27T06:25:53.223Z,61.42
2023-03-27T06:28:23.085Z,61.89
2023-03-27T06:30:51.879Z,62.03
2023-03-27T06:33:20.304Z,61.88
2023-03-27T06:35:53.214Z,61.83
2023-03-27T06:38:23.099Z,60.82
2023-03-27T06:40:51.879Z,61.27
2023-03-27T06:43:22.588Z,61.30
2023-03-27T06:45:53.009Z,61.11
2023-03-27T06:48:22.607Z,61.01
2023-03-27T06:50:52.817Z,61.13
2023-03-27T06:55:53.076Z,60.32
2023-03-27T06:58:22.208Z,60.16
2023-03-27T07:00:52.250Z,60.58
2023-03-27T07:03:23.045Z,60.35
2023-03-27T07:05:51.372Z,60.30
2023-03-27T07:08:24.158Z,59.56
2023-03-27T07:13:24.698Z,59.11
2023-03-27T07:15:55.067Z,59.47
2023-03-27T07:18:24.048Z,59.58
2023-03-27T07:20:52.941Z,59.51
2023-03-27T07:23:21.584Z,59.22
2023-03-27T07:25:50.367Z,58.97
2023-03-27T07:28:18.897Z,58.86
2023-03-27T07:30:47.454Z,58.83
2023-03-27T07:33:17.283Z,58.48
2023-03-27T07:35:46.638Z,58.72
2023-03-27T07:38:16.254Z,58.56
2023-03-27T07:40:46.510Z,58.57
2023-03-27T07:43:15.543Z,58.28
2023-03-27T07:45:44.373Z,58.29
2023-03-27T07:48:16.391Z,58.67
2023-03-27T07:50:46.525Z,58.41
2023-03-27T07:53:33.909Z,58.58
2023-03-27T07:56:03.998Z,58.46
2023-03-27T07:58:32.429Z,58.50
2023-03-27T08:01:02.792Z,58.67
2023-03-27T08:03:32.119Z,58.01
2023-03-27T08:06:02.238Z,58.14
2023-03-27T08:08:30.934Z,57.95
2023-03-27T08:11:00.671Z,57.78
2023-03-27T08:13:29.595Z,57.82
2023-03-27T08:16:04.717Z,57.75
2023-03-27T08:18:33.552Z,56.25
2023-03-27T08:21:04.839Z,56.59
2023-03-27T08:23:33.996Z,56.06
2023-03-27T08:26:03.827Z,55.86
2023-03-27T08:28:34.151Z,55.73
2023-03-27T08:31:04.564Z,55.11
2023-03-27T08:33:33.037Z,55.16
2023-03-27T08:36:01.320Z,54.03
2023-03-27T08:38:33.469Z,54.52
2023-03-27T08:41:03.870Z,54.94
2023-03-27T08:43:38.134Z,54.65
2023-03-27T08:46:10.254Z,54.91
2023-03-27T08:48:45.088Z,54.78
2023-03-27T08:51:18.527Z,53.18
2023-03-27T08:53:53.802Z,53.08
2023-03-27T08:56:22.697Z,53.12
2023-03-27T08:58:51.152Z,53.18
2023-03-27T09:01:29.481Z,52.37
2023-03-27T09:04:04.370Z,52.44
2023-03-27T09:06:40.730Z,52.88
2023-03-27T09:09:17.847Z,52.75
2023-03-27T09:11:55.868Z,52.38
2023-03-27T09:14:31.512Z,50.73
2023-03-27T09:17:05.360Z,51.21
2023-03-27T09:19:41.049Z,51.61
2023-03-27T09:22:15.472Z,51.91
2023-03-27T09:24:50.232Z,51.71
2023-03-27T09:27:23.322Z,51.13
2023-03-27T09:30:06.124Z,51.04
2023-03-27T09:32:35.164Z,51.59
2023-03-27T09:35:04.864Z,51.66
2023-03-27T09:37:35.143Z,51.34
2023-03-27T09:40:13.068Z,51.18
2023-03-27T09:42:43.557Z,49.81
2023-03-27T09:45:14.474Z,50.24
2023-03-27T09:47:51.113Z,50.24
2023-03-27T09:50:27.876Z,50.81
2023-03-27T09:53:09.459Z,49.55
2023-03-27T09:55:53.057Z,49.69
2023-03-27T09:58:35.602Z,50.60
2023-03-27T10:01:15.879Z,50.78
2023-03-27T10:03:50.204Z,49.91
2023-03-27T10:06:27.366Z,50.07
2023-03-27T10:08:56.628Z,49.82
2023-03-27T10:11:28.928Z,50.16
2023-03-27T10:14:00.037Z,50.10
2023-03-27T10:16:30.032Z,48.83
2023-03-27T10:19:01.340Z,48.94
2023-03-27T10:21:34.002Z,49.37
2023-03-27T10:24:05.875Z,48.68
2023-03-27T10:26:38.656Z,48.51
2023-03-27T10:29:23.224Z,48.93
2023-03-27T10:31:53.431Z,49.38
2023-03-27T10:34:38.242Z,48.57
2023-03-27T10:37:21.935Z,48.71
2023-03-27T10:39:50.508Z,48.79
2023-03-27T10:42:22.858Z,48.29
2023-03-27T10:44:55.003Z,48.81
2023-03-27T10:47:25.793Z,48.22
2023-03-27T10:50:04.859Z,47.71
2023-03-27T10:52:44.680Z,48.20
2023-03-27T10:55:33.249Z,48.59
2023-03-27T10:58:06.918Z,48.36
2023-03-27T11:00:36.894Z,48.98
2023-03-27T11:03:12.741Z,48.92
2023-03-27T11:05:44.789Z,47.96
2023-03-27T11:08:17.580Z,47.18
2023-03-27T11:10:47.884Z,47.34
2023-03-27T11:13:23.283Z,47.40
2023-03-27T11:15:55.821Z,47.62
2023-03-27T11:18:27.124Z,47.22
2023-03-27T11:20:59.838Z,47.60
2023-03-27T11:23:33.447Z,46.21
2023-03-27T11:26:02.716Z,47.18
2023-03-27T11:28:43.059Z,45.98
2023-03-27T11:31:21.572Z,46.97
2023-03-27T11:33:54.035Z,47.55
2023-03-27T11:36:33.973Z,46.29
2023-03-27T11:39:13.738Z,46.63
2023-03-27T11:41:42.090Z,45.57
2023-03-27T11:44:12.903Z,45.70
2023-03-27T11:46:55.624Z,46.43
2023-03-27T11:49:39.503Z,46.01
2023-03-27T11:52:21.224Z,45.78
2023-03-27T11:55:06.793Z,44.09
2023-03-27T11:57:43.069Z,45.44
2023-03-27T12:00:19.562Z,46.02
2023-03-27T12:03:15.158Z,45.86
2023-03-27T12:05:57.466Z,45.79
2023-03-27T12:08:36.270Z,45.63
2023-03-27T12:11:08.969Z,45.65
2023-03-27T12:14:01.196Z,45.43
2023-03-27T12:16:59.436Z,45.20
2023-03-27T12:19:44.423Z,45.32
2023-03-27T12:22:24.730Z,45.56
2023-03-27T12:25:05.697Z,43.86
2023-03-27T12:27:47.642Z,43.03
2023-03-27T12:30:25.047Z,43.56
2023-03-27T12:33:27.062Z,42.24
2023-03-27T12:35:58.646Z,41.58
2023-03-27T12:38:31.278Z,41.94
2023-03-27T12:41:08.794Z,42.34
2023-03-27T12:43:41.209Z,42.55
2023-03-27T12:46:16.626Z,40.19
2023-03-27T12:48:56.420Z,41.17
2023-03-27T12:51:39.266Z,41.25
2023-03-27T12:54:17.275Z,40.60
2023-03-27T12:56:45.618Z,41.73
2023-03-27T12:59:23.974Z,41.16
2023-03-27T13:02:31.057Z,40.51
2023-03-27T13:05:31.058Z,39.87
2023-03-27T13:08:21.505Z,39.87
2023-03-27T13:10:59.273Z,39.77
2023-03-27T13:14:03.023Z,41.20
2023-03-27T13:16:53.344Z,43.10
2023-03-27T13:19:33.101Z,44.61
2023-03-27T13:22:23.708Z,47.64
2023-03-27T13:25:08.655Z,48.06
2023-03-27T13:27:50.913Z,49.57
2023-03-27T13:30:45.517Z,50.99
2023-03-27T13:33:18.403Z,51.16
2023-03-27T13:36:04.179Z,51.89
2023-03-27T13:39:01.777Z,53.00
2023-03-27T13:41:53.951Z,52.66
2023-03-27T13:44:29.614Z,52.38
2023-03-27T13:47:08.470Z,52.75
2023-03-27T13:50:05.175Z,53.38
2023-03-27T13:53:01.323Z,53.11
2023-03-27T13:58:45.042Z,53.07
2023-03-27T14:01:35.957Z,50.51
2023-03-27T14:04:29.481Z,50.21
2023-03-27T14:07:33.796Z,48.43
2023-03-27T14:10:20.180Z,48.23
2023-03-27T14:13:03.241Z,49.04
2023-03-27T14:15:45.247Z,48.09
2023-03-27T14:18:31.311Z,48.42
2023-03-27T14:21:01.920Z,46.62
2023-03-27T14:23:33.718Z,44.74
2023-03-27T14:26:04.765Z,43.73
2023-03-27T14:28:51.810Z,42.70
2023-03-27T14:31:24.001Z,43.91
2023-03-27T14:33:53.331Z,44.25
2023-03-27T14:36:26.083Z,44.23
2023-03-27T14:38:54.705Z,43.49
2023-03-27T14:41:25.706Z,42.82
2023-03-27T14:43:57.071Z,42.52
2023-03-27T14:46:27.855Z,42.64
2023-03-27T14:48:59.604Z,43.44
2023-03-27T14:51:37.320Z,43.57
2023-03-27T14:54:08.493Z,42.92
2023-03-27T14:56:41.702Z,42.92
2023-03-27T14:59:15.311Z,43.00
2023-03-27T15:01:45.084Z,42.51
2023-03-27T15:04:15.399Z,42.02
2023-03-27T15:06:44.079Z,43.32
2023-03-27T15:09:16.397Z,44.51
2023-03-27T15:11:49.421Z,46.78
2023-03-27T15:14:21.076Z,47.07
2023-03-27T15:16:56.221Z,47.95
2023-03-27T15:19:28.885Z,48.12
2023-03-27T15:22:02.014Z,48.38
2023-03-27T15:24:37.824Z,48.76
2023-03-27T15:27:07.165Z,48.87
2023-03-27T15:29:41.086Z,48.76
2023-03-27T15:32:15.068Z,49.16
2023-03-27T15:34:47.800Z,50.71
2023-03-27T15:37:23.422Z,50.69
2023-03-27T15:40:07.339Z,52.23
2023-03-27T15:42:47.569Z,55.94
2023-03-27T15:45:17.886Z,54.98
2023-03-27T15:48:02.006Z,55.93
2023-03-27T15:50:30.474Z,56.65
2023-03-27T15:53:01.520Z,57.08
2023-03-27T15:55:36.780Z,57.53
2023-03-27T15:58:17.718Z,57.70
2023-03-27T16:00:48.789Z,57.83
2023-03-27T16:03:23.172Z,57.89
2023-03-27T16:05:52.877Z,58.07
2023-03-27T16:08:31.885Z,58.00
2023-03-27T16:11:00.854Z,57.64
2023-03-27T16:13:34.922Z,58.12
2023-03-27T16:16:05.196Z,57.80
2023-03-27T16:18:38.162Z,57.94
2023-03-27T16:21:08.445Z,58.22
2023-03-27T16:23:37.424Z,58.00
2023-03-27T16:26:08.095Z,58.13
2023-03-27T16:28:36.979Z,58.09
2023-03-27T16:31:12.751Z,58.16
2023-03-27T16:33:45.312Z,58.17
2023-03-27T16:36:15.775Z,58.25
2023-03-27T16:38:44.390Z,57.99
2023-03-27T16:41:15.187Z,58.30
2023-03-27T16:43:44.007Z,58.17
2023-03-27T16:46:18.713Z,57.64
2023-03-27T16:48:48.768Z,58.58
2023-03-27T16:51:17.046Z,59.20
2023-03-27T16:53:45.474Z,58.97
2023-03-27T16:56:14.437Z,60.42
2023-03-27T16:58:43.034Z,61.36
2023-03-27T17:01:11.661Z,61.25
2023-03-27T17:03:40.167Z,61.03
2023-03-27T17:06:12.801Z,60.88
2023-03-27T17:08:41.594Z,60.83
2023-03-27T17:11:11.341Z,60.57
2023-03-27T17:13:43.126Z,60.42
2023-03-27T17:16:12.421Z,60.56
2023-03-27T17:18:41.039Z,60.39
2023-03-27T17:21:10.921Z,60.55
2023-03-27T17:23:39.394Z,60.20
2023-03-27T17:26:09.242Z,60.55
2023-03-27T17:28:40.222Z,60.62
2023-03-27T17:31:08.698Z,60.79
2023-03-27T17:33:37.133Z,60.35
2023-03-27T17:36:11.294Z,60.26
2023-03-27T17:38:39.996Z,60.25
2023-03-27T17:41:08.537Z,59.71
2023-03-27T17:43:36.882Z,59.65
2023-03-27T17:46:05.466Z,59.99
2023-03-27T17:48:34.849Z,59.71
2023-03-27T17:51:08.718Z,59.00
2023-03-27T17:53:40.216Z,58.74
2023-03-27T17:56:10.513Z,58.21
2023-03-27T17:58:38.809Z,58.29
2023-03-27T18:01:17.826Z,58.41
2023-03-27T18:03:46.910Z,58.11
2023-03-27T18:06:17.451Z,57.76
2023-03-27T18:08:47.994Z,57.19
2023-03-27T18:11:17.715Z,56.87
2023-03-27T18:13:51.472Z,56.55
2023-03-27T18:16:20.526Z,56.01
2023-03-27T18:18:51.387Z,56.55
2023-03-27T18:21:19.735Z,56.16
2023-03-27T18:23:49.533Z,56.61
2023-03-27T18:26:18.101Z,56.25
2023-03-27T18:28:46.370Z,56.14
2023-03-27T18:31:15.946Z,56.22
2023-03-27T18:33:44.306Z,56.40
2023-03-27T18:36:13.204Z,56.26
2023-03-27T18:38:42.584Z,55.81
2023-03-27T18:41:12.660Z,55.39
2023-03-27T18:43:41.033Z,56.12
2023-03-27T18:46:10.992Z,55.25
2023-03-27T18:48:39.377Z,56.04
2023-03-27T18:51:08.213Z,56.11
2023-03-27T18:53:36.777Z,56.58
2023-03-27T18:56:05.994Z,56.55
2023-03-27T18:58:35.998Z,56.92
2023-03-27T19:01:09.676Z,57.12
2023-03-27T19:03:39.610Z,57.11
2023-03-27T19:06:10.420Z,56.88
2023-03-27T19:08:39.509Z,57.21
2023-03-27T19:11:08.544Z,57.16
2023-03-27T19:13:38.587Z,57.53
2023-03-27T19:16:14.347Z,57.83
2023-03-27T19:18:43.880Z,57.71
2023-03-27T19:21:12.467Z,57.74
2023-03-27T19:23:40.825Z,57.58
2023-03-27T19:26:10.291Z,57.40
2023-03-27T19:28:40.472Z,56.89
2023-03-27T19:31:10.648Z,57.39
2023-03-27T19:33:40.876Z,57.06
2023-03-27T19:36:10.227Z,56.37
2023-03-27T19:38:38.861Z,56.63
2023-03-27T19:41:11.126Z,56.71
2023-03-27T19:43:40.883Z,56.13
2023-03-27T19:46:16.492Z,55.75
2023-03-27T19:48:45.495Z,56.10
2023-03-27T19:51:14.147Z,56.04
2023-03-27T19:53:43.583Z,55.99
2023-03-27T19:56:13.006Z,55.93
2023-03-27T19:58:44.135Z,56.53
2023-03-27T20:01:12.947Z,56.42
2023-03-27T20:03:41.669Z,56.42
2023-03-27T20:06:18.172Z,56.09
2023-03-27T20:08:46.978Z,55.98
2023-03-27T20:11:15.341Z,56.48
2023-03-27T20:13:55.224Z,56.84
2023-03-27T20:16:25.271Z,56.41
2023-03-27T20:19:04.068Z,56.71
2023-03-27T20:21:34.801Z,56.56
2023-03-27T20:24:03.403Z,56.70
2023-03-27T20:26:39.040Z,56.51
2023-03-27T20:29:10.614Z,57.14
2023-03-27T20:31:40.479Z,57.08
2023-03-27T20:34:10.249Z,57.04
2023-03-27T20:36:39.331Z,57.48
2023-03-27T20:39:09.181Z,56.88
2023-03-27T20:41:39.402Z,57.14
2023-03-27T20:44:27.291Z,57.20
2023-03-27T20:47:03.358Z,56.71
2023-03-27T20:49:40.558Z,56.87
2023-03-27T20:52:09.929Z,56.97
2023-03-27T20:54:39.048Z,56.71
2023-03-27T20:57:07.948Z,56.22
2023-03-27T20:59:38.113Z,55.78
2023-03-27T21:02:06.918Z,56.10
2023-03-27T21:04:35.233Z,55.91
2023-03-27T21:07:03.549Z,56.55
2023-03-27T21:09:32.156Z,57.05
2023-03-27T21:12:01.439Z,57.22
2023-03-27T21:14:29.760Z,57.28
2023-03-27T21:16:59.596Z,56.97
2023-03-27T21:19:27.941Z,57.36
2023-03-27T21:21:56.445Z,56.94
2023-03-27T21:24:24.788Z,57.46
2023-03-27T21:26:53.061Z,57.44
2023-03-27T21:29:21.407Z,57.61
2023-03-27T21:31:49.814Z,57.08
2023-03-27T21:34:19.667Z,57.93
2023-03-27T21:36:48.138Z,57.60
2023-03-27T21:39:16.467Z,58.13
2023-03-27T21:41:44.811Z,58.39
2023-03-27T21:44:13.184Z,57.59
2023-03-27T21:46:41.551Z,57.88
2023-03-27T21:49:10.200Z,58.01
2023-03-27T21:51:40.297Z,57.99
2023-03-27T21:54:08.591Z,58.29
2023-03-27T21:56:36.954Z,57.85
2023-03-27T21:59:05.361Z,57.36
2023-03-27T22:01:33.707Z,57.76
2023-03-27T22:04:02.923Z,57.88
2023-03-27T22:06:31.666Z,57.72
2023-03-27T22:09:01.613Z,57.36
2023-03-27T22:11:29.903Z,57.52
2023-03-27T22:13:59.363Z,57.66
2023-03-27T22:16:27.760Z,57.54
2023-03-27T22:18:56.148Z,57.82
2023-03-27T22:21:26.680Z,57.79
2023-03-27T22:23:56.487Z,58.05
2023-03-27T22:26:28.105Z,57.37
2023-03-27T22:28:56.634Z,57.67
2023-03-27T22:31:25.872Z,57.88
2023-03-27T22:33:54.396Z,57.59
2023-03-27T22:36:23.392Z,57.35
2023-03-27T22:38:51.718Z,57.36
2023-03-27T22:41:20.455Z,57.14
2023-03-27T22:43:50.277Z,57.38
2023-03-27T22:46:21.110Z,56.59
2023-03-27T22:48:54.206Z,56.48
2023-03-27T22:51:22.534Z,56.57
2023-03-27T22:53:51.350Z,56.81
2023-03-27T22:56:19.796Z,56.25
2023-03-27T22:58:49.690Z,57.09
2023-03-27T23:01:18.053Z,56.08
2023-03-27T23:03:46.599Z,57.09
2023-03-27T23:06:19.139Z,57.12
2023-03-27T23:08:48.811Z,57.15
2023-03-27T23:11:17.913Z,57.26
2023-03-27T23:13:46.232Z,57.19
2023-03-27T23:16:16.167Z,57.04
2023-03-27T23:18:44.441Z,56.18
2023-03-27T23:21:17.127Z,56.22
2023-03-27T23:23:46.211Z,56.69
2023-03-27T23:26:14.598Z,56.75
2023-03-27T23:28:43.804Z,56.33
2023-03-27T23:31:14.239Z,56.51
2023-03-27T23:33:46.410Z,56.43
2023-03-27T23:36:16.804Z,56.77
2023-03-27T23:38:45.382Z,57.15
2023-03-27T23:41:15.679Z,56.67
2023-03-27T23:43:44.092Z,56.36
2023-03-27T23:46:12.739Z,56.69
2023-03-27T23:48:43.928Z,56.72
2023-03-27T23:51:13.830Z,56.68
2023-03-27T23:53:42.207Z,56.70
2023-03-27T23:56:11.445Z,56.58
2023-03-27T23:58:40.124Z,56.03
